Aérodrome :
LOGIN :

S'inscrire | Disclaimer

   EN    FR    IT 

 










Légende :    VFR   VFR Marginal   IFR   IFR Intensif   IFR Très Intensif
Visi : 
Plafond : 
>= 8 km
>= 3000ft
5 à 8 km
1000 à 3000 ft
1500m à 5 km
500 à 1000 ft
800 à 1500m
200 à 500 ft
< 800m
< 200 ft
Symboles :   Orages  Brouillard  Fortes neiges  Fortes précipitations  Vent > 20 kt
SIGMETs :   Divers  Orages  Givrage  Turbulence  Onde Orograph.  Cendres Volcan.







- Altitude de l'aérodrome : 147 ft
- Code IATA : DUS


EDDL - Düsseldorf Int.

DERNIER METAR :
  • 211750Z 23011KT 9999 FEW050TCU 15/04 Q1012 NOSIG

METARs EXPIRÉS :
  • 211720Z 25014KT CAVOK 15/04 Q1012 NOSIG
  • 211650Z 25019KT CAVOK 16/03 Q1011 TEMPO 25020G30KT
  • 211620Z 26017G27KT CAVOK 17/04 Q1011 NOSIG
  • 211550Z 27013KT 240V300 9999 FEW046 17/05 Q1011 TEMPO 25015G25KT
  • 211520Z 26012KT 9999 FEW046TCU 16/06 Q1011 TEMPO 25015G25KT

TAF TAF EDDL
Valide du 21 à 18h jusqu'au 23 à 00h UTC


211700Z 2118/2224 26015G25KT 9999 SCT045
TEMPO 2118/2121 26020G30KT
BECMG 2118/2122 23012KT
TEMPO 2209/2216 26015G25KT
BECMG 2216/2219 21006KT
Pas de NOTAMs connus pour ce terrain.



MET'MAP, la Météo Aéronautique d'un coup d'oeil ! - Copyright ORBIFLY Décembre 2007 - Disclaimer

ORBIFLY MET'MAP TEAM :

Programmation & Développement : Alexandra Zaïnal
Conception & Développement : Baudouin d'Aumeries
Co-Programmation & Développement : Marc-Olivier Méhu
Soutien technique & logistique : Manuel Goepfert

Contact : metmap@orbifly.com




SOURCES & CREDITS :

   NOAA